Time;durP1;ratioP1;P1;durP2;ratioP2;P2;SDS_P1;SDS_P2;PMS_P1;PMS_P2;Temp;Humidity;BMP_temperature;BMP_pressure;BME280_temperature;BME280_humidity;BME280_pressure;Samples;Min_cycle;Max_cycle;Signal;HPM_P1;HPM_P2
2023/09/29 00:01:33;;;;;;;0.73;0.63;;;21.30;77.90;;;;;;5094557;28;20469;-75
2023/09/29 00:04:00;;;;;;;1.17;1.02;;;21.20;77.80;;;;;;5091961;28;20118;-76
2023/09/29 00:06:26;;;;;;;1.05;0.95;;;21.30;77.90;;;;;;5094448;28;20039;-76
2023/09/29 00:08:51;;;;;;;1.33;0.88;;;21.20;77.80;;;;;;5088380;28;20052;-75
2023/09/29 00:11:17;;;;;;;1.10;0.98;;;21.20;77.80;;;;;;5094465;28;20485;-75
2023/09/29 00:13:42;;;;;;;1.92;1.08;;;21.30;77.80;;;;;;5087883;28;20041;-74
2023/09/29 00:16:08;;;;;;;1.08;0.80;;;21.30;77.70;;;;;;5088903;28;20035;-74
2023/09/29 00:18:34;;;;;;;1.25;1.10;;;21.30;77.60;;;;;;5086199;28;20496;-74
2023/09/29 00:20:59;;;;;;;1.50;1.00;;;21.30;77.70;;;;;;5083831;28;20165;-75
2023/09/29 00:23:25;;;;;;;0.80;0.80;;;21.30;77.60;;;;;;5094778;28;20059;-75
2023/09/29 00:25:50;;;;;;;1.10;0.90;;;21.30;77.60;;;;;;5097774;28;20043;-75
2023/09/29 00:28:16;;;;;;;1.17;1.08;;;21.30;77.50;;;;;;5088580;28;20497;-75
2023/09/29 00:30:42;;;;;;;1.35;1.10;;;21.30;77.50;;;;;;5088742;28;20523;-74
2023/09/29 00:33:08;;;;;;;2.15;1.08;;;21.30;77.50;;;;;;5089205;28;20063;-75
2023/09/29 00:35:33;;;;;;;1.00;0.90;;;21.30;77.60;;;;;;5086355;28;20047;-75
2023/09/29 00:38:00;;;;;;;1.30;1.05;;;21.20;77.60;;;;;;5096426;28;20564;-75
2023/09/29 00:40:25;;;;;;;1.20;1.10;;;21.30;78.50;;;;;;5093900;28;20036;-74
2023/09/29 00:42:52;;;;;;;1.20;1.10;;;21.30;77.80;;;;;;5087990;28;20047;-74
2023/09/29 00:45:22;;;;;;;1.30;1.20;;;21.20;77.80;;;;;;5087955;28;20052;-74
2023/09/29 00:47:52;;;;;;;1.30;1.20;;;21.30;77.80;;;;;;5070986;28;20034;-75
2023/09/29 00:50:18;;;;;;;2.08;1.42;;;21.20;77.90;;;;;;5110896;27;20044;-74
2023/09/29 00:52:44;;;;;;;1.75;1.33;;;21.30;77.80;;;;;;5095019;28;20417;-74
2023/09/29 00:55:11;;;;;;;1.08;0.95;;;21.30;77.80;;;;;;5111292;27;20039;-75
2023/09/29 00:57:39;;;;;;;1.55;1.45;;;21.30;77.80;;;;;;5089721;28;20039;-75
2023/09/29 01:00:32;;;;;;;1.60;1.15;;;21.30;77.80;;;;;;5067956;28;20044;-75
2023/09/29 01:03:15;;;;;;;1.90;1.20;;;21.30;77.70;;;;;;5090459;28;20130;-75
2023/09/29 01:05:48;;;;;;;1.52;1.08;;;21.30;77.80;;;;;;5073939;28;20048;-75
2023/09/29 01:08:20;;;;;;;1.92;1.20;;;21.30;77.80;;;;;;5090851;28;20036;-75
2023/09/29 01:10:46;;;;;;;1.92;1.55;;;21.30;77.90;;;;;;5100361;28;20039;-74
2023/09/29 01:13:12;;;;;;;1.83;1.58;;;21.20;77.60;;;;;;5094117;28;20113;-75
2023/09/29 01:15:39;;;;;;;2.83;1.45;;;21.30;77.70;;;;;;5071377;28;20048;-74
2023/09/29 01:18:06;;;;;;;1.98;1.58;;;21.30;77.70;;;;;;5088561;28;20191;-73
2023/09/29 01:20:34;;;;;;;1.60;1.27;;;21.20;77.60;;;;;;5089613;28;20119;-74
2023/09/29 01:23:00;;;;;;;1.77;1.52;;;21.30;77.70;;;;;;5092597;28;20052;-75
2023/09/29 01:25:26;;;;;;;2.33;1.35;;;21.30;77.60;;;;;;5088388;28;20047;-75
2023/09/29 01:27:52;;;;;;;1.85;1.63;;;21.30;77.80;;;;;;5092871;28;20135;-74
2023/09/29 01:30:18;;;;;;;2.85;1.30;;;21.30;77.80;;;;;;5090017;28;20151;-75
2023/09/29 01:32:48;;;;;;;1.95;1.60;;;21.30;77.60;;;;;;5092001;28;20040;-75
2023/09/29 01:35:17;;;;;;;3.42;1.38;;;21.30;77.50;;;;;;5083479;28;20051;-75
2023/09/29 01:37:46;;;;;;;1.98;1.70;;;21.30;77.70;;;;;;5091471;28;20047;-75
2023/09/29 01:40:12;;;;;;;1.48;1.33;;;21.30;78.30;;;;;;5092629;28;20054;-74
2023/09/29 01:42:39;;;;;;;1.65;1.23;;;21.30;77.60;;;;;;5087883;28;20085;-75
2023/09/29 01:45:07;;;;;;;2.50;1.70;;;21.30;77.50;;;;;;5080691;28;20135;-75
2023/09/29 01:47:35;;;;;;;5.07;1.40;;;21.30;77.50;;;;;;5087184;28;20043;-75
2023/09/29 01:50:00;;;;;;;2.80;1.55;;;21.30;77.50;;;;;;5091718;28;20421;-75
2023/09/29 01:52:26;;;;;;;1.20;1.08;;;21.30;77.40;;;;;;5103354;28;20035;-75
2023/09/29 01:54:55;;;;;;;2.33;1.77;;;21.30;77.40;;;;;;5089005;28;20525;-75
2023/09/29 01:57:20;;;;;;;2.05;1.50;;;21.30;77.40;;;;;;5095803;28;20127;-75
2023/09/29 01:59:47;;;;;;;3.38;1.85;;;21.30;77.20;;;;;;5092471;28;20174;-75
2023/09/29 02:02:13;;;;;;;2.42;1.23;;;21.30;78.20;;;;;;5089081;28;20036;-75
2023/09/29 02:04:39;;;;;;;3.13;1.60;;;21.30;77.20;;;;;;5080363;28;20105;-75
2023/09/29 02:07:05;;;;;;;2.72;1.77;;;21.30;77.20;;;;;;5085076;28;20084;-75
2023/09/29 02:09:31;;;;;;;1.50;1.30;;;21.30;77.20;;;;;;5087640;28;20133;-75
2023/09/29 02:11:56;;;;;;;2.13;1.33;;;21.30;77.10;;;;;;5091156;28;20055;-74
2023/09/29 02:14:23;;;;;;;1.77;1.45;;;21.30;77.20;;;;;;5088429;28;20040;-75
2023/09/29 02:16:48;;;;;;;2.78;1.60;;;21.30;77.20;;;;;;5094347;28;20043;-75
2023/09/29 02:19:15;;;;;;;1.75;1.42;;;21.30;77.30;;;;;;5092557;28;20050;-75
2023/09/29 02:21:43;;;;;;;2.90;1.80;;;21.30;77.50;;;;;;5088872;28;20051;-75
2023/09/29 02:24:08;;;;;;;1.63;1.27;;;21.30;78.00;;;;;;5084919;28;20040;-75
2023/09/29 02:26:34;;;;;;;2.08;1.77;;;21.30;78.60;;;;;;5089162;28;20063;-75
2023/09/29 02:29:01;;;;;;;2.60;1.75;;;21.30;79.00;;;;;;5089626;28;20048;-75
2023/09/29 02:31:26;;;;;;;2.70;1.45;;;21.30;79.00;;;;;;5095384;28;20062;-75
2023/09/29 02:33:53;;;;;;;2.33;1.52;;;21.30;78.60;;;;;;5086782;28;20497;-75
2023/09/29 02:36:19;;;;;;;2.00;1.50;;;21.30;78.60;;;;;;5088207;28;20044;-75
2023/09/29 02:38:45;;;;;;;1.35;1.20;;;21.30;78.60;;;;;;5090631;28;20043;-75
2023/09/29 02:41:10;;;;;;;1.70;1.08;;;21.30;79.30;;;;;;5097429;28;20040;-75
2023/09/29 02:43:36;;;;;;;1.42;1.30;;;21.30;78.40;;;;;;5090144;28;20115;-75
2023/09/29 02:46:02;;;;;;;1.92;1.27;;;21.30;78.30;;;;;;5072154;28;20079;-75
2023/09/29 02:48:27;;;;;;;2.30;1.52;;;21.30;78.20;;;;;;5092722;28;20059;-74
2023/09/29 02:50:53;;;;;;;1.55;1.23;;;21.30;78.10;;;;;;5093539;28;20044;-75
2023/09/29 02:53:19;;;;;;;1.77;1.10;;;21.30;78.00;;;;;;5095500;28;20065;-74
2023/09/29 02:55:45;;;;;;;1.42;1.30;;;21.30;78.00;;;;;;5091057;28;20048;-75
2023/09/29 02:58:11;;;;;;;1.40;1.20;;;21.30;78.00;;;;;;5098543;28;20035;-76
2023/09/29 03:00:37;;;;;;;1.63;1.33;;;21.30;77.90;;;;;;5092008;28;20109;-75
2023/09/29 03:03:03;;;;;;;1.88;1.50;;;21.30;78.60;;;;;;5099797;28;20117;-75
2023/09/29 03:05:29;;;;;;;2.03;1.33;;;21.30;77.70;;;;;;5077985;28;20514;-75
2023/09/29 03:07:55;;;;;;;1.30;1.20;;;21.30;77.70;;;;;;5096827;28;20046;-75
2023/09/29 03:10:25;;;;;;;1.40;1.25;;;21.30;77.60;;;;;;5093760;28;20051;-75
2023/09/29 03:12:50;;;;;;;1.45;1.20;;;21.40;77.70;;;;;;5095458;28;20052;-75
2023/09/29 03:15:16;;;;;;;1.70;1.17;;;21.30;77.70;;;;;;5088921;28;20777;-75
2023/09/29 03:17:45;;;;;;;1.77;1.13;;;21.30;77.60;;;;;;5092194;28;20042;-75
2023/09/29 03:20:12;;;;;;;1.83;1.23;;;21.30;78.60;;;;;;5092031;28;20546;-76
2023/09/29 03:22:43;;;;;;;0.98;0.85;;;21.30;77.50;;;;;;5095148;28;20052;-75
2023/09/29 03:25:19;;;;;;;1.42;1.15;;;21.30;77.50;;;;;;5091265;28;20435;-75
2023/09/29 03:27:45;;;;;;;1.20;1.10;;;21.30;77.50;;;;;;5090122;28;20055;-75
2023/09/29 03:30:11;;;;;;;1.73;1.02;;;21.30;77.50;;;;;;5089567;28;20040;-75
2023/09/29 03:32:37;;;;;;;1.98;1.10;;;21.30;77.40;;;;;;5094384;28;20059;-75
2023/09/29 03:35:05;;;;;;;1.13;1.00;;;21.30;77.50;;;;;;5087565;28;20052;-75
2023/09/29 03:37:35;;;;;;;1.30;1.08;;;21.40;77.50;;;;;;5097314;28;20394;-75
2023/09/29 03:40:03;;;;;;;1.58;1.35;;;21.30;77.50;;;;;;5091415;28;20075;-75
2023/09/29 03:42:29;;;;;;;1.15;1.02;;;21.30;77.30;;;;;;5106592;27;20040;-75
2023/09/29 03:44:54;;;;;;;1.30;1.20;;;21.30;77.30;;;;;;5093469;28;20454;-75
2023/09/29 03:47:20;;;;;;;1.67;1.40;;;21.30;77.40;;;;;;5091293;28;20043;-75
2023/09/29 03:49:46;;;;;;;1.10;1.00;;;21.30;77.30;;;;;;5094814;28;20047;-75
2023/09/29 03:52:12;;;;;;;1.05;0.80;;;21.30;77.30;;;;;;5095601;28;20551;-75
2023/09/29 03:54:38;;;;;;;1.35;0.98;;;21.30;77.20;;;;;;5098264;28;20104;-75
2023/09/29 03:57:10;;;;;;;1.10;0.98;;;21.30;77.30;;;;;;5110237;27;20044;-75
2023/09/29 03:59:36;;;;;;;1.00;0.82;;;21.30;77.20;;;;;;5095231;28;20413;-75
2023/09/29 04:02:02;;;;;;;1.20;1.05;;;21.30;77.30;;;;;;5095384;28;20048;-74
2023/09/29 04:04:28;;;;;;;1.10;0.80;;;21.30;77.30;;;;;;5088627;28;21053;-75
2023/09/29 04:06:53;;;;;;;1.42;1.00;;;21.30;77.30;;;;;;5089951;28;20462;-75
2023/09/29 04:09:20;;;;;;;1.65;1.08;;;21.30;77.30;;;;;;5091924;28;20051;-75
2023/09/29 04:11:46;;;;;;;1.23;1.02;;;21.30;77.30;;;;;;5098196;28;20057;-75
2023/09/29 04:14:11;;;;;;;1.48;1.27;;;21.30;77.10;;;;;;5094491;28;20836;-75
2023/09/29 04:16:37;;;;;;;1.33;0.80;;;21.30;77.20;;;;;;5087643;28;20043;-75
2023/09/29 04:19:02;;;;;;;0.88;0.82;;;21.30;77.00;;;;;;5094558;28;20044;-75
2023/09/29 04:21:28;;;;;;;1.25;1.13;;;21.30;77.20;;;;;;5095300;28;20060;-75
2023/09/29 04:23:53;;;;;;;1.10;1.00;;;21.30;77.00;;;;;;5098519;28;20043;-75
2023/09/29 04:26:20;;;;;;;1.80;1.25;;;21.30;77.20;;;;;;5097185;28;20047;-75
2023/09/29 04:28:46;;;;;;;1.38;0.90;;;21.30;76.90;;;;;;5098564;28;20068;-75
2023/09/29 04:31:13;;;;;;;1.20;1.10;;;21.30;76.80;;;;;;5094071;28;20516;-75
2023/09/29 04:33:39;;;;;;;1.10;1.00;;;21.30;77.10;;;;;;5085001;28;20047;-75
2023/09/29 04:36:06;;;;;;;0.88;0.88;;;21.30;76.80;;;;;;5094326;28;20043;-75
2023/09/29 04:38:31;;;;;;;1.13;1.02;;;21.30;76.90;;;;;;5093180;28;20044;-74
2023/09/29 04:40:57;;;;;;;0.93;0.82;;;21.30;76.70;;;;;;5096330;28;20141;-75
2023/09/29 04:43:22;;;;;;;1.48;1.00;;;21.30;76.80;;;;;;5087627;28;20044;-74
2023/09/29 04:45:48;;;;;;;0.95;0.75;;;21.30;76.60;;;;;;5090477;28;20048;-74
2023/09/29 04:48:14;;;;;;;1.15;0.93;;;21.30;76.60;;;;;;5096485;28;20047;-75
2023/09/29 04:50:39;;;;;;;1.00;0.90;;;21.30;76.60;;;;;;5095689;28;20047;-75
2023/09/29 04:53:05;;;;;;;1.27;0.93;;;21.30;76.50;;;;;;5097838;28;20040;-75
2023/09/29 04:55:30;;;;;;;0.98;0.65;;;21.30;76.70;;;;;;5074349;28;20051;-74
2023/09/29 04:57:56;;;;;;;1.05;0.77;;;21.30;76.90;;;;;;5094907;28;20036;-75
2023/09/29 05:00:22;;;;;;;0.55;0.52;;;21.30;76.50;;;;;;5092159;28;20039;-76
2023/09/29 05:02:47;;;;;;;1.00;0.90;;;21.30;76.60;;;;;;5088384;28;20036;-75
2023/09/29 05:05:13;;;;;;;0.95;0.80;;;21.30;76.50;;;;;;5093468;28;20519;-75
2023/09/29 05:07:39;;;;;;;0.73;0.60;;;21.30;76.40;;;;;;5101039;28;20046;-75
2023/09/29 05:10:05;;;;;;;1.00;0.90;;;21.30;76.40;;;;;;5086478;28;20446;-75
2023/09/29 05:12:32;;;;;;;0.90;0.90;;;21.30;76.80;;;;;;5085622;28;20042;-75
2023/09/29 05:14:58;;;;;;;0.60;0.60;;;21.30;76.40;;;;;;4711827;28;9999724;-76
2023/09/29 05:17:23;;;;;;;2.25;0.70;;;21.30;76.40;;;;;;5081057;28;20043;-76
2023/09/29 05:19:49;;;;;;;0.82;0.82;;;21.30;76.30;;;;;;5083821;28;20417;-74
2023/09/29 05:22:14;;;;;;;0.80;0.80;;;21.30;76.30;;;;;;5103080;27;20047;-75
2023/09/29 05:24:40;;;;;;;1.10;0.80;;;21.30;76.60;;;;;;5087391;28;20115;-75
2023/09/29 05:27:06;;;;;;;1.30;1.00;;;21.30;76.30;;;;;;5079142;28;20044;-75
2023/09/29 05:29:32;;;;;;;0.98;0.88;;;21.30;76.40;;;;;;5066394;28;20051;-76
2023/09/29 05:31:57;;;;;;;2.22;1.23;;;21.30;75.90;;;;;;5096423;27;20044;-76
2023/09/29 05:34:23;;;;;;;1.83;1.00;;;21.30;74.90;;;;;;5098955;27;20513;-75
2023/09/29 05:36:49;;;;;;;1.55;0.90;;;21.20;74.80;;;;;;5070543;28;20039;-75
2023/09/29 05:39:14;;;;;;;2.53;1.40;;;21.20;75.00;;;;;;5057852;28;20520;-75
2023/09/29 05:41:40;;;;;;;1.75;0.98;;;21.20;75.00;;;;;;5065290;28;20040;-75
2023/09/29 05:44:06;;;;;;;1.13;0.95;;;21.20;74.80;;;;;;5096708;27;20028;-75
2023/09/29 05:46:31;;;;;;;2.47;1.27;;;21.20;74.60;;;;;;5094417;28;20123;-75
2023/09/29 05:48:57;;;;;;;2.13;1.33;;;21.10;74.60;;;;;;5088338;28;20511;-75
2023/09/29 05:51:22;;;;;;;3.05;1.35;;;21.10;74.80;;;;;;5079888;28;20039;-74
2023/09/29 05:53:48;;;;;;;2.08;1.20;;;21.10;74.80;;;;;;5071852;28;20520;-75
2023/09/29 05:56:15;;;;;;;2.25;1.40;;;21.10;75.10;;;;;;5081773;28;20048;-75
2023/09/29 05:58:41;;;;;;;4.38;1.40;;;20.90;75.50;;;;;;5081895;28;20055;-76
2023/09/29 06:01:10;;;;;;;2.42;1.35;;;21.00;75.40;;;;;;5074482;28;20036;-75
2023/09/29 06:03:37;;;;;;;2.70;1.40;;;21.00;75.40;;;;;;5088847;28;20048;-74
2023/09/29 06:06:03;;;;;;;2.03;1.65;;;21.00;75.40;;;;;;5078155;28;20032;-74
2023/09/29 06:08:28;;;;;;;1.88;1.70;;;21.00;75.60;;;;;;5086060;28;20042;-75
2023/09/29 06:10:54;;;;;;;2.45;1.65;;;20.90;76.00;;;;;;5081580;28;20048;-74
2023/09/29 06:13:20;;;;;;;1.77;1.40;;;21.00;76.00;;;;;;5070843;28;20093;-75
2023/09/29 06:15:45;;;;;;;1.60;1.25;;;20.90;76.10;;;;;;5071429;28;20043;-75
2023/09/29 06:18:11;;;;;;;1.80;1.38;;;20.90;76.50;;;;;;5083500;28;20036;-75
2023/09/29 06:20:37;;;;;;;2.13;1.63;;;20.80;76.80;;;;;;5089415;28;20051;-74
2023/09/29 06:23:04;;;;;;;3.70;1.80;;;20.70;77.00;;;;;;5088130;28;20043;-75
2023/09/29 06:25:30;;;;;;;3.08;1.40;;;20.70;77.00;;;;;;5076941;28;20105;-75
2023/09/29 06:27:56;;;;;;;2.90;1.90;;;20.70;77.40;;;;;;5085929;28;20051;-74
2023/09/29 06:30:22;;;;;;;1.65;1.30;;;20.70;77.50;;;;;;5092590;28;20052;-74
2023/09/29 06:32:47;;;;;;;1.88;1.40;;;20.70;77.60;;;;;;5091613;28;20056;-75
2023/09/29 06:35:14;;;;;;;2.92;1.17;;;20.70;77.60;;;;;;5090694;28;20630;-75
2023/09/29 06:37:40;;;;;;;3.60;1.48;;;20.70;78.00;;;;;;5095601;28;20086;-75
2023/09/29 06:40:10;;;;;;;2.78;1.48;;;20.60;78.00;;;;;;5094917;28;20157;-74
2023/09/29 06:42:36;;;;;;;2.47;1.65;;;20.70;78.00;;;;;;5088884;28;20044;-74
2023/09/29 06:45:02;;;;;;;2.70;1.63;;;20.70;78.00;;;;;;5091819;28;20048;-75
2023/09/29 06:47:28;;;;;;;2.23;1.67;;;20.60;78.10;;;;;;4733125;28;10000431;-75
2023/09/29 06:49:53;;;;;;;2.53;1.40;;;20.60;78.40;;;;;;5096244;28;20405;-75
2023/09/29 06:52:19;;;;;;;2.47;1.50;;;20.60;78.60;;;;;;5103358;28;20058;-75
2023/09/29 06:54:44;;;;;;;4.78;1.50;;;20.70;78.40;;;;;;5093041;28;20031;-75
2023/09/29 06:57:10;;;;;;;1.88;1.38;;;20.80;78.30;;;;;;5097678;28;20131;-75
2023/09/29 06:59:36;;;;;;;2.60;1.65;;;20.80;78.40;;;;;;5092138;28;20517;-75
2023/09/29 07:02:02;;;;;;;1.65;1.55;;;20.90;78.40;;;;;;5099237;28;23855;-75
2023/09/29 07:04:27;;;;;;;1.98;1.20;;;20.90;78.70;;;;;;5100469;28;20047;-75
2023/09/29 07:06:53;;;;;;;2.28;1.23;;;20.90;79.00;;;;;;5095593;28;20058;-75
2023/09/29 07:09:18;;;;;;;1.90;1.70;;;20.90;79.00;;;;;;5097041;28;20035;-75
2023/09/29 07:11:44;;;;;;;1.95;1.50;;;20.90;78.80;;;;;;5088835;28;20033;-75
2023/09/29 07:14:10;;;;;;;2.78;1.55;;;20.90;78.80;;;;;;5095741;28;20522;-75
2023/09/29 07:16:35;;;;;;;2.65;1.27;;;21.00;78.80;;;;;;5097882;28;20110;-75
2023/09/29 07:19:01;;;;;;;5.20;1.67;;;21.00;78.80;;;;;;5092166;28;20031;-75
2023/09/29 07:21:27;;;;;;;1.40;1.30;;;21.00;78.60;;;;;;5092560;28;20044;-75
2023/09/29 07:23:52;;;;;;;2.20;1.50;;;21.00;78.60;;;;;;5090498;28;20039;-75
2023/09/29 07:26:18;;;;;;;1.20;1.00;;;21.00;78.50;;;;;;5110887;27;20455;-75
2023/09/29 07:28:44;;;;;;;1.40;1.30;;;21.00;78.50;;;;;;5082633;28;20039;-75
2023/09/29 07:31:10;;;;;;;4.15;1.48;;;21.00;78.40;;;;;;5108894;27;20094;-75
2023/09/29 07:33:35;;;;;;;1.45;1.35;;;21.00;78.30;;;;;;5090349;28;20510;-75
2023/09/29 07:36:01;;;;;;;2.10;1.30;;;21.00;78.40;;;;;;5081900;28;20342;-75
2023/09/29 07:38:27;;;;;;;2.25;1.60;;;21.00;78.40;;;;;;5095985;28;20105;-75
2023/09/29 07:40:53;;;;;;;1.90;1.08;;;21.00;77.90;;;;;;5082091;28;20040;-75
2023/09/29 07:43:18;;;;;;;1.83;1.27;;;21.00;78.10;;;;;;5113643;27;20037;-75
2023/09/29 07:45:44;;;;;;;1.95;1.00;;;21.00;78.00;;;;;;5094176;28;20044;-75
2023/09/29 07:48:11;;;;;;;2.08;1.27;;;21.00;77.80;;;;;;5094055;28;20035;-74
2023/09/29 07:50:37;;;;;;;1.70;1.15;;;21.00;77.90;;;;;;5092492;28;20202;-76
2023/09/29 07:53:03;;;;;;;1.35;1.05;;;21.00;77.80;;;;;;5090727;28;20102;-75
2023/09/29 07:55:28;;;;;;;2.40;1.35;;;21.10;78.00;;;;;;5094636;28;20105;-75
2023/09/29 07:57:54;;;;;;;1.15;1.00;;;21.00;77.70;;;;;;5093664;28;20539;-75
2023/09/29 08:00:20;;;;;;;1.45;1.23;;;21.00;77.90;;;;;;5093055;28;20040;-75
2023/09/29 08:02:45;;;;;;;2.63;1.63;;;21.10;77.80;;;;;;5090885;28;20044;-75
2023/09/29 08:05:14;;;;;;;1.10;1.00;;;21.10;77.80;;;;;;5095917;28;20024;-75
2023/09/29 08:07:40;;;;;;;1.40;1.30;;;21.10;77.70;;;;;;5102770;28;20039;-75
2023/09/29 08:10:07;;;;;;;1.50;1.10;;;21.10;77.40;;;;;;5096054;28;20047;-75
2023/09/29 08:12:32;;;;;;;1.10;1.00;;;21.10;77.40;;;;;;5093706;28;20114;-75
2023/09/29 08:14:58;;;;;;;1.40;1.02;;;21.10;77.40;;;;;;5095726;28;20180;-75
2023/09/29 08:17:25;;;;;;;1.00;0.90;;;21.10;77.30;;;;;;5096298;28;20055;-75
2023/09/29 08:19:51;;;;;;;1.50;1.15;;;21.10;77.30;;;;;;5092056;28;20043;-75
2023/09/29 08:22:17;;;;;;;1.70;1.48;;;21.10;77.30;;;;;;5092074;28;20040;-75
2023/09/29 08:24:42;;;;;;;1.95;1.55;;;21.10;77.20;;;;;;5094901;28;20036;-75
2023/09/29 08:27:08;;;;;;;1.30;1.13;;;21.10;77.10;;;;;;5089367;28;20420;-75
2023/09/29 08:29:33;;;;;;;1.00;0.90;;;21.10;77.00;;;;;;5089385;28;20140;-78
2023/09/29 08:32:00;;;;;;;1.48;1.10;;;21.10;76.90;;;;;;5096340;28;20043;-75
2023/09/29 08:34:28;;;;;;;1.50;1.30;;;21.10;76.80;;;;;;5093010;28;20035;-75
2023/09/29 08:36:54;;;;;;;1.20;1.02;;;21.10;76.70;;;;;;5086702;28;20048;-75
2023/09/29 08:39:20;;;;;;;1.40;1.15;;;21.10;76.70;;;;;;5093538;28;20070;-75
2023/09/29 08:41:54;;;;;;;1.95;1.08;;;21.10;76.50;;;;;;5098330;28;20051;-75
2023/09/29 08:44:20;;;;;;;2.25;1.05;;;21.10;76.60;;;;;;5103029;27;20094;-75
2023/09/29 08:46:47;;;;;;;1.30;1.20;;;21.10;76.50;;;;;;5078244;28;20039;-75
2023/09/29 08:49:17;;;;;;;1.75;1.40;;;21.10;76.50;;;;;;5092552;28;20491;-75
2023/09/29 08:51:46;;;;;;;1.40;1.02;;;21.10;76.50;;;;;;5072065;28;20184;-75
2023/09/29 08:54:12;;;;;;;0.80;0.75;;;21.10;76.50;;;;;;5085573;28;20563;-75
2023/09/29 08:56:38;;;;;;;1.55;1.00;;;21.10;76.60;;;;;;5096851;28;20509;-75
2023/09/29 08:59:04;;;;;;;1.40;0.90;;;21.10;76.60;;;;;;5101354;27;20049;-75
2023/09/29 09:01:30;;;;;;;1.20;1.00;;;21.10;76.50;;;;;;5103446;28;20093;-75
2023/09/29 09:03:55;;;;;;;0.95;0.88;;;21.10;76.50;;;;;;5092626;28;20393;-75
2023/09/29 09:06:22;;;;;;;1.10;1.00;;;21.10;76.50;;;;;;5091741;28;20047;-75
2023/09/29 09:08:51;;;;;;;1.25;0.82;;;21.10;76.40;;;;;;5078191;28;20029;-75
2023/09/29 09:11:17;;;;;;;1.20;1.05;;;21.10;76.40;;;;;;5095890;28;20407;-75
2023/09/29 09:13:43;;;;;;;1.48;1.20;;;21.20;76.40;;;;;;5094066;28;20579;-75
2023/09/29 09:16:09;;;;;;;0.80;0.70;;;21.20;76.30;;;;;;5094824;28;20090;-75
2023/09/29 09:18:36;;;;;;;1.17;1.00;;;21.20;76.30;;;;;;5087193;28;20032;-75
2023/09/29 09:21:01;;;;;;;1.10;0.95;;;21.20;76.20;;;;;;5096035;28;20044;-74
2023/09/29 09:23:37;;;;;;;1.52;1.20;;;21.20;76.20;;;;;;5098457;28;20032;-75
2023/09/29 09:26:11;;;;;;;1.08;0.90;;;21.20;76.20;;;;;;5076921;28;20052;-75
2023/09/29 09:28:37;;;;;;;0.98;0.88;;;21.20;76.20;;;;;;5099746;28;20088;-77
2023/09/29 09:31:03;;;;;;;3.03;1.33;;;21.20;76.10;;;;;;5091761;28;20048;-75
2023/09/29 09:33:31;;;;;;;1.13;0.90;;;21.20;76.10;;;;;;5091072;28;20051;-75
2023/09/29 09:36:23;;;;;;;0.85;0.80;;;21.20;76.90;;;;;;5089572;28;20115;-75
2023/09/29 09:38:49;;;;;;;1.30;1.20;;;21.20;76.00;;;;;;5086808;28;20047;-75
2023/09/29 09:41:15;;;;;;;1.20;0.80;;;21.20;76.70;;;;;;5072838;28;20108;-75
2023/09/29 09:43:40;;;;;;;1.38;1.10;;;21.20;76.00;;;;;;5113340;27;20048;-75
2023/09/29 09:46:12;;;;;;;0.93;0.93;;;21.20;76.10;;;;;;5076668;28;20062;-75
2023/09/29 09:49:08;;;;;;;0.70;0.70;;;21.20;76.10;;;;;;5084639;28;20630;-75
2023/09/29 09:51:39;;;;;;;0.88;0.77;;;21.20;76.10;;;;;;5096183;28;20035;-75
2023/09/29 09:54:08;;;;;;;0.90;0.82;;;21.20;76.10;;;;;;5087690;28;20112;-75
2023/09/29 09:57:00;;;;;;;1.20;1.10;;;21.20;76.10;;;;;;5107484;27;20528;-75
2023/09/29 09:59:27;;;;;;;1.17;1.00;;;21.20;76.00;;;;;;5077900;28;21003;-75
2023/09/29 10:01:55;;;;;;;1.05;0.90;;;21.20;76.00;;;;;;5110174;27;20225;-75
2023/09/29 10:04:20;;;;;;;1.20;0.90;;;21.20;76.10;;;;;;5056320;28;20047;-75
2023/09/29 10:06:46;;;;;;;1.60;1.20;;;21.20;76.10;;;;;;5094429;28;20123;-75
2023/09/29 10:09:12;;;;;;;2.45;1.17;;;21.20;76.10;;;;;;5076059;28;20046;-75
2023/09/29 10:11:42;;;;;;;1.23;1.13;;;21.20;76.10;;;;;;5098028;28;20069;-75
2023/09/29 10:14:08;;;;;;;1.25;1.02;;;21.20;76.10;;;;;;5090780;28;20096;-75
2023/09/29 10:16:38;;;;;;;2.25;1.40;;;21.20;76.00;;;;;;5099213;28;20035;-75
2023/09/29 10:19:06;;;;;;;1.48;1.17;;;21.20;76.00;;;;;;5093657;28;20052;-75
2023/09/29 10:21:42;;;;;;;1.00;1.00;;;21.30;76.80;;;;;;5075837;28;20560;-75
2023/09/29 10:24:11;;;;;;;1.30;1.00;;;21.30;75.90;;;;;;5090607;28;20401;-75
2023/09/29 10:26:49;;;;;;;1.20;1.10;;;21.20;75.90;;;;;;5094399;28;20390;-75
2023/09/29 10:29:18;;;;;;;1.17;0.95;;;21.30;75.90;;;;;;5100233;28;20063;-75
2023/09/29 10:31:44;;;;;;;1.25;1.15;;;21.30;75.90;;;;;;5102746;28;20046;-75
2023/09/29 10:34:17;;;;;;;1.70;1.20;;;21.30;75.80;;;;;;5097073;28;20035;-75
2023/09/29 10:36:43;;;;;;;1.42;1.33;;;21.30;75.60;;;;;;5086572;28;20027;-76
2023/09/29 10:39:09;;;;;;;1.38;1.10;;;21.30;75.70;;;;;;5095007;28;20032;-75
2023/09/29 10:41:37;;;;;;;1.30;1.13;;;21.30;76.30;;;;;;5097987;28;20113;-75
2023/09/29 10:44:05;;;;;;;1.40;1.30;;;21.30;75.50;;;;;;5092679;28;20071;-75
2023/09/29 10:46:31;;;;;;;1.27;1.08;;;21.30;75.50;;;;;;5082777;28;20090;-75
2023/09/29 10:48:57;;;;;;;1.02;0.85;;;21.30;76.30;;;;;;5089318;28;20040;-75
2023/09/29 10:51:24;;;;;;;1.65;0.85;;;21.30;75.50;;;;;;5087848;28;20123;-75
2023/09/29 10:53:49;;;;;;;1.20;1.10;;;21.30;75.50;;;;;;5098189;28;20032;-77
2023/09/29 10:56:23;;;;;;;2.63;1.30;;;21.30;75.70;;;;;;5069752;28;20046;-75
2023/09/29 10:58:52;;;;;;;;;;;21.30;75.60;;;;;;4734220;28;9999606;-77
2023/09/29 11:01:33;;;;;;;1.15;1.05;;;21.30;75.40;;;;;;5086398;28;19919;-76
2023/09/29 11:04:00;;;;;;;1.67;1.58;;;21.30;75.10;;;;;;5095744;28;20040;-74
2023/09/29 11:06:26;;;;;;;1.63;1.50;;;21.30;75.10;;;;;;5100566;28;20043;-74
2023/09/29 11:08:56;;;;;;;2.83;2.22;;;21.30;75.90;;;;;;5089146;28;20789;-77
2023/09/29 11:11:24;;;;;;;2.80;1.60;;;21.40;75.10;;;;;;5089047;28;20044;-76
2023/09/29 11:13:56;;;;;;;1.88;1.70;;;21.40;75.90;;;;;;5068023;28;21464;-77
2023/09/29 11:16:24;;;;;;;2.13;1.83;;;21.40;76.00;;;;;;5087236;28;20304;-76
2023/09/29 11:18:51;;;;;;;2.03;1.83;;;21.40;75.90;;;;;;5096984;28;20048;-79
2023/09/29 11:21:17;;;;;;;3.22;2.22;;;21.40;75.70;;;;;;5077306;28;20412;-79
2023/09/29 11:23:48;;;;;;;2.75;1.50;;;21.40;75.40;;;;;;5090696;28;20111;-79
2023/09/29 11:26:15;;;;;;;1.90;1.52;;;21.40;75.50;;;;;;5102451;28;20414;-79
2023/09/29 11:28:42;;;;;;;2.20;1.80;;;21.40;75.50;;;;;;5097584;28;20046;-77
2023/09/29 11:31:10;;;;;;;1.75;1.65;;;21.40;75.30;;;;;;5077090;28;20043;-76
2023/09/29 11:33:36;;;;;;;2.15;1.90;;;21.50;75.20;;;;;;5086254;28;20073;-77
2023/09/29 11:36:15;;;;;;;1.88;1.67;;;21.50;75.00;;;;;;5097381;28;20074;-78
2023/09/29 11:38:40;;;;;;;2.05;1.85;;;21.50;75.90;;;;;;5095589;28;20047;-77
2023/09/29 11:41:06;;;;;;;1.73;1.63;;;21.40;75.00;;;;;;5097144;28;20028;-78
2023/09/29 11:43:34;;;;;;;3.05;2.00;;;21.40;75.00;;;;;;5103627;28;20505;-77
2023/09/29 11:46:00;;;;;;;2.95;1.80;;;21.40;75.00;;;;;;5097271;28;20030;-78
2023/09/29 11:48:27;;;;;;;2.22;2.03;;;21.40;75.70;;;;;;5094550;28;20044;-77
2023/09/29 11:50:53;;;;;;;2.05;1.83;;;21.40;74.90;;;;;;5090376;28;20094;-78
2023/09/29 11:53:19;;;;;;;2.50;1.80;;;21.40;75.00;;;;;;5086934;28;20056;-78
2023/09/29 11:55:44;;;;;;;1.65;1.50;;;21.50;75.50;;;;;;5081494;27;20039;-80
2023/09/29 11:58:10;;;;;;;2.33;2.13;;;21.50;74.80;;;;;;5092980;28;20058;-79
2023/09/29 12:00:36;;;;;;;1.75;1.65;;;21.50;74.70;;;;;;5084963;28;20541;-79
2023/09/29 12:03:05;;;;;;;1.73;1.63;;;21.50;74.80;;;;;;5074689;28;20050;-80
2023/09/29 12:05:34;;;;;;;1.50;1.40;;;21.50;74.60;;;;;;5090039;28;20046;-80
2023/09/29 12:08:00;;;;;;;2.08;1.92;;;21.50;74.60;;;;;;5091897;28;20036;-79
2023/09/29 12:10:25;;;;;;;1.73;1.58;;;21.50;74.50;;;;;;5092350;28;20070;-80
2023/09/29 12:12:52;;;;;;;1.60;1.45;;;21.50;74.60;;;;;;5087209;28;20028;-79
2023/09/29 12:15:18;;;;;;;2.17;2.05;;;21.50;74.80;;;;;;5100035;28;20036;-78
2023/09/29 12:17:46;;;;;;;2.00;1.80;;;21.50;74.70;;;;;;5099263;28;20119;-78
2023/09/29 12:20:14;;;;;;;2.28;1.83;;;21.50;74.60;;;;;;5086066;28;20028;-77
2023/09/29 12:22:45;;;;;;;1.92;1.83;;;21.50;74.60;;;;;;5111145;27;20051;-78
2023/09/29 12:25:15;;;;;;;2.65;2.45;;;21.50;75.30;;;;;;4880833;27;10000453;-79
2023/09/29 12:27:42;;;;;;;2.35;2.15;;;21.50;73.20;;;;;;5086126;28;20261;-77
2023/09/29 12:30:09;;;;;;;3.00;2.40;;;21.50;72.10;;;;;;5093058;28;20052;-77
2023/09/29 12:32:38;;;;;;;3.05;2.75;;;21.50;72.10;;;;;;5087728;28;20059;-78
2023/09/29 12:35:04;;;;;;;3.35;3.05;;;21.50;72.10;;;;;;5085040;28;20403;-77
2023/09/29 12:37:30;;;;;;;4.43;3.22;;;21.50;71.20;;;;;;5067006;28;20068;-78
2023/09/29 12:39:56;;;;;;;5.28;3.45;;;21.50;70.40;;;;;;5091621;28;20062;-77
2023/09/29 12:42:21;;;;;;;4.28;3.35;;;21.50;70.50;;;;;;5084423;28;20555;-77
2023/09/29 12:44:47;;;;;;;3.70;3.25;;;21.50;69.80;;;;;;5098385;28;20044;-76
2023/09/29 12:47:16;;;;;;;3.67;3.20;;;21.50;69.50;;;;;;5093502;28;22070;-77